sensor_id;sensor_type;location;lat;lon;timestamp;pressure;altitude;pressure_sealevel;temperature;humidity
61318;BME280;47201;40.428;-8.436;2023-05-27T00:03:52;100328.69;;;17.41;100.00
61318;BME280;47201;40.428;-8.436;2023-05-27T00:08:44;100323.56;;;17.37;100.00
61318;BME280;47201;40.428;-8.436;2023-05-27T00:10:45;100322.28;;;17.23;100.00
61318;BME280;47201;40.428;-8.436;2023-05-27T00:12:47;100323.50;;;17.15;100.00
61318;BME280;47201;40.428;-8.436;2023-05-27T00:14:48;100328.88;;;17.11;100.00
61318;BME280;47201;40.428;-8.436;2023-05-27T00:16:48;100322.81;;;17.08;100.00
61318;BME280;47201;40.428;-8.436;2023-05-27T00:18:49;100315.13;;;17.02;100.00
61318;BME280;47201;40.428;-8.436;2023-05-27T00:20:50;100317.69;;;17.03;100.00
61318;BME280;47201;40.428;-8.436;2023-05-27T00:22:51;100315.13;;;17.02;100.00
61318;BME280;47201;40.428;-8.436;2023-05-27T00:24:52;100316.72;;;17.06;100.00
61318;BME280;47201;40.428;-8.436;2023-05-27T00:26:52;100312.94;;;17.13;100.00
61318;BME280;47201;40.428;-8.436;2023-05-27T00:28:53;100315.59;;;17.13;100.00
61318;BME280;47201;40.428;-8.436;2023-05-27T00:30:54;100314.91;;;17.08;100.00
61318;BME280;47201;40.428;-8.436;2023-05-27T00:32:55;100317.59;;;17.06;100.00
61318;BME280;47201;40.428;-8.436;2023-05-27T00:34:55;100316.63;;;17.09;100.00
61318;BME280;47201;40.428;-8.436;2023-05-27T00:36:56;100327.09;;;17.12;100.00
61318;BME280;47201;40.428;-8.436;2023-05-27T00:38:57;100324.41;;;17.13;100.00
61318;BME280;47201;40.428;-8.436;2023-05-27T00:41:00;100331.50;;;17.11;100.00
61318;BME280;47201;40.428;-8.436;2023-05-27T00:43:01;100313.84;;;17.13;100.00
61318;BME280;47201;40.428;-8.436;2023-05-27T00:45:03;100313.00;;;17.11;100.00
61318;BME280;47201;40.428;-8.436;2023-05-27T00:47:04;100305.22;;;17.08;100.00
61318;BME280;47201;40.428;-8.436;2023-05-27T00:49:04;100306.97;;;17.08;100.00
61318;BME280;47201;40.428;-8.436;2023-05-27T00:51:05;100299.81;;;17.11;100.00
61318;BME280;47201;40.428;-8.436;2023-05-27T00:53:06;100286.66;;;17.10;100.00
61318;BME280;47201;40.428;-8.436;2023-05-27T00:55:11;100296.09;;;17.17;100.00
61318;BME280;47201;40.428;-8.436;2023-05-27T00:57:11;100297.69;;;17.21;100.00
61318;BME280;47201;40.428;-8.436;2023-05-27T00:59:12;100300.34;;;17.21;100.00
61318;BME280;47201;40.428;-8.436;2023-05-27T01:01:13;100299.44;;;17.22;100.00
61318;BME280;47201;40.428;-8.436;2023-05-27T01:03:14;100297.50;;;17.27;100.00
61318;BME280;47201;40.428;-8.436;2023-05-27T01:05:16;100289.34;;;17.34;100.00
61318;BME280;47201;40.428;-8.436;2023-05-27T01:11:36;100288.53;;;17.32;100.00
61318;BME280;47201;40.428;-8.436;2023-05-27T01:13:43;100295.06;;;17.21;100.00
61318;BME280;47201;40.428;-8.436;2023-05-27T01:15:47;100292.88;;;17.09;100.00
61318;BME280;47201;40.428;-8.436;2023-05-27T01:17:53;100305.59;;;16.98;100.00
61318;BME280;47201;40.428;-8.436;2023-05-27T01:19:56;100300.75;;;16.84;100.00
61318;BME280;47201;40.428;-8.436;2023-05-27T01:22:00;100304.59;;;16.73;100.00
61318;BME280;47201;40.428;-8.436;2023-05-27T01:24:03;100298.91;;;16.59;100.00
61318;BME280;47201;40.428;-8.436;2023-05-27T01:26:05;100298.38;;;16.49;100.00
61318;BME280;47201;40.428;-8.436;2023-05-27T01:28:06;100309.81;;;16.48;100.00
61318;BME280;47201;40.428;-8.436;2023-05-27T01:30:08;100298.50;;;16.44;100.00
61318;BME280;47201;40.428;-8.436;2023-05-27T01:32:15;100301.09;;;16.46;100.00
61318;BME280;47201;40.428;-8.436;2023-05-27T01:34:24;100301.22;;;16.43;100.00
61318;BME280;47201;40.428;-8.436;2023-05-27T01:36:28;100303.22;;;16.34;100.00
61318;BME280;47201;40.428;-8.436;2023-05-27T01:38:31;100297.19;;;16.31;100.00
61318;BME280;47201;40.428;-8.436;2023-05-27T01:40:33;100291.91;;;16.31;100.00
61318;BME280;47201;40.428;-8.436;2023-05-27T01:42:35;100298.03;;;16.31;100.00
61318;BME280;47201;40.428;-8.436;2023-05-27T01:44:39;100301.50;;;16.33;100.00
61318;BME280;47201;40.428;-8.436;2023-05-27T01:46:41;100294.41;;;16.36;100.00
61318;BME280;47201;40.428;-8.436;2023-05-27T01:48:42;100292.63;;;16.36;100.00
61318;BME280;47201;40.428;-8.436;2023-05-27T01:50:43;100290.88;;;16.37;100.00
61318;BME280;47201;40.428;-8.436;2023-05-27T01:52:44;100292.69;;;16.34;100.00
61318;BME280;47201;40.428;-8.436;2023-05-27T01:54:45;100288.50;;;16.27;100.00
61318;BME280;47201;40.428;-8.436;2023-05-27T01:56:46;100286.91;;;16.23;100.00
61318;BME280;47201;40.428;-8.436;2023-05-27T01:58:47;100287.81;;;16.22;100.00
61318;BME280;47201;40.428;-8.436;2023-05-27T02:00:48;100294.97;;;16.17;100.00
61318;BME280;47201;40.428;-8.436;2023-05-27T02:02:49;100289.06;;;16.10;100.00
61318;BME280;47201;40.428;-8.436;2023-05-27T02:04:51;100289.06;;;16.10;100.00
61318;BME280;47201;40.428;-8.436;2023-05-27T02:06:52;100284.75;;;16.06;100.00
61318;BME280;47201;40.428;-8.436;2023-05-27T02:08:53;100294.59;;;16.01;100.00
61318;BME280;47201;40.428;-8.436;2023-05-27T02:10:53;100295.66;;;15.95;100.00
61318;BME280;47201;40.428;-8.436;2023-05-27T02:12:54;100294.09;;;15.90;100.00
61318;BME280;47201;40.428;-8.436;2023-05-27T02:14:55;100293.13;;;15.92;100.00
61318;BME280;47201;40.428;-8.436;2023-05-27T02:16:56;100293.91;;;15.94;100.00
61318;BME280;47201;40.428;-8.436;2023-05-27T02:18:56;100292.78;;;16.03;100.00
61318;BME280;47201;40.428;-8.436;2023-05-27T02:20:57;100292.66;;;16.08;100.00
61318;BME280;47201;40.428;-8.436;2023-05-27T02:22:58;100281.28;;;16.06;100.00
61318;BME280;47201;40.428;-8.436;2023-05-27T02:24:58;100283.03;;;16.05;100.00
61318;BME280;47201;40.428;-8.436;2023-05-27T02:26:59;100284.75;;;16.08;100.00
61318;BME280;47201;40.428;-8.436;2023-05-27T02:29:00;100281.28;;;16.06;100.00
61318;BME280;47201;40.428;-8.436;2023-05-27T02:31:02;100281.34;;;16.02;100.00
61318;BME280;47201;40.428;-8.436;2023-05-27T02:33:02;100279.56;;;16.05;100.00
61318;BME280;47201;40.428;-8.436;2023-05-27T02:35:03;100279.28;;;16.14;100.00
61318;BME280;47201;40.428;-8.436;2023-05-27T02:37:05;100276.44;;;16.20;100.00
61318;BME280;47201;40.428;-8.436;2023-05-27T02:39:06;100277.19;;;16.24;100.00
61318;BME280;47201;40.428;-8.436;2023-05-27T02:41:06;100277.13;;;16.27;100.00
61318;BME280;47201;40.428;-8.436;2023-05-27T02:43:11;100277.97;;;16.27;100.00
61318;BME280;47201;40.428;-8.436;2023-05-27T02:45:12;100282.41;;;16.25;100.00
61318;BME280;47201;40.428;-8.436;2023-05-27T02:47:12;100283.63;;;16.15;100.00
61318;BME280;47201;40.428;-8.436;2023-05-27T02:49:13;100289.19;;;16.06;100.00
61318;BME280;47201;40.428;-8.436;2023-05-27T02:51:14;100287.53;;;16.01;100.00
61318;BME280;47201;40.428;-8.436;2023-05-27T02:53:15;100297.50;;;15.93;100.00
61318;BME280;47201;40.428;-8.436;2023-05-27T02:55:17;100288.03;;;15.86;100.00
61318;BME280;47201;40.428;-8.436;2023-05-27T02:57:18;100291.69;;;15.79;100.00
61318;BME280;47201;40.428;-8.436;2023-05-27T02:59:19;100292.72;;;15.75;100.00
61318;BME280;47201;40.428;-8.436;2023-05-27T03:01:20;100296.31;;;15.72;100.00
61318;BME280;47201;40.428;-8.436;2023-05-27T03:03:21;100299.06;;;15.67;100.00
61318;BME280;47201;40.428;-8.436;2023-05-27T03:05:22;100302.63;;;15.66;100.00
61318;BME280;47201;40.428;-8.436;2023-05-27T03:07:23;100307.88;;;15.66;100.00
61318;BME280;47201;40.428;-8.436;2023-05-27T03:09:24;100306.91;;;15.70;100.00
61318;BME280;47201;40.428;-8.436;2023-05-27T03:11:25;100301.63;;;15.70;100.00
61318;BME280;47201;40.428;-8.436;2023-05-27T03:13:26;100296.44;;;15.67;100.00
61318;BME280;47201;40.428;-8.436;2023-05-27T03:15:27;100297.28;;;15.68;100.00
61318;BME280;47201;40.428;-8.436;2023-05-27T03:17:36;100306.84;;;15.72;100.00
61318;BME280;47201;40.428;-8.436;2023-05-27T03:19:40;100306.91;;;15.70;100.00
61318;BME280;47201;40.428;-8.436;2023-05-27T03:21:42;100306.91;;;15.70;100.00
61318;BME280;47201;40.428;-8.436;2023-05-27T03:23:42;100312.31;;;15.64;100.00
61318;BME280;47201;40.428;-8.436;2023-05-27T03:25:43;100305.44;;;15.60;100.00
61318;BME280;47201;40.428;-8.436;2023-05-27T03:27:45;100309.94;;;15.57;100.00
61318;BME280;47201;40.428;-8.436;2023-05-27T03:29:49;100303.19;;;15.46;100.00
61318;BME280;47201;40.428;-8.436;2023-05-27T03:31:49;100311.22;;;15.42;100.00
61318;BME280;47201;40.428;-8.436;2023-05-27T03:33:52;100319.13;;;15.42;100.00
61318;BME280;47201;40.428;-8.436;2023-05-27T03:35:53;100307.78;;;15.39;100.00
61318;BME280;47201;40.428;-8.436;2023-05-27T03:37:56;100313.94;;;15.38;100.00
61318;BME280;47201;40.428;-8.436;2023-05-27T03:39:56;100315.69;;;15.39;100.00
61318;BME280;47201;40.428;-8.436;2023-05-27T03:41:58;100310.53;;;15.35;100.00
61318;BME280;47201;40.428;-8.436;2023-05-27T03:43:59;100307.78;;;15.39;100.00
61318;BME280;47201;40.428;-8.436;2023-05-27T03:46:00;100307.91;;;15.35;100.00
61318;BME280;47201;40.428;-8.436;2023-05-27T03:48:03;100311.50;;;15.32;100.00
61318;BME280;47201;40.428;-8.436;2023-05-27T03:50:04;100308.75;;;15.35;100.00
61318;BME280;47201;40.428;-8.436;2023-05-27T03:52:05;100312.00;;;15.45;100.00
61318;BME280;47201;40.428;-8.436;2023-05-27T03:54:06;100318.03;;;15.49;100.00
61318;BME280;47201;40.428;-8.436;2023-05-27T03:56:07;100308.16;;;15.57;100.00
61318;BME280;47201;40.428;-8.436;2023-05-27T03:58:10;100313.34;;;15.60;100.00
61318;BME280;47201;40.428;-8.436;2023-05-27T04:00:14;100307.28;;;15.57;100.00
61318;BME280;47201;40.428;-8.436;2023-05-27T04:02:25;100309.94;;;15.57;100.00
61318;BME280;47201;40.428;-8.436;2023-05-27T04:04:26;100318.69;;;15.57;100.00
61318;BME280;47201;40.428;-8.436;2023-05-27T04:06:27;100314.16;;;15.62;100.00
61318;BME280;47201;40.428;-8.436;2023-05-27T04:08:28;100315.16;;;15.58;100.00
61318;BME280;47201;40.428;-8.436;2023-05-27T04:10:29;100308.00;;;15.63;100.00
61318;BME280;47201;40.428;-8.436;2023-05-27T04:12:30;100320.75;;;15.77;100.00
61318;BME280;47201;40.428;-8.436;2023-05-27T04:14:30;100328.72;;;15.76;100.00
61318;BME280;47201;40.428;-8.436;2023-05-27T04:16:32;100321.63;;;15.78;100.00
61318;BME280;47201;40.428;-8.436;2023-05-27T04:18:34;100323.50;;;15.74;100.00
61318;BME280;47201;40.428;-8.436;2023-05-27T04:20:38;100320.88;;;15.73;100.00
61318;BME280;47201;40.428;-8.436;2023-05-27T04:22:44;100333.06;;;15.77;100.00
61318;BME280;47201;40.428;-8.436;2023-05-27T04:24:45;100336.44;;;15.82;100.00
61318;BME280;47201;40.428;-8.436;2023-05-27T04:26:46;100327.47;;;15.89;100.00
61318;BME280;47201;40.428;-8.436;2023-05-27T04:28:49;100339.81;;;15.87;100.00
61318;BME280;47201;40.428;-8.436;2023-05-27T04:30:50;100340.88;;;15.80;100.00
61318;BME280;47201;40.428;-8.436;2023-05-27T04:33:10;100340.22;;;15.71;100.00
61318;BME280;47201;40.428;-8.436;2023-05-27T04:35:12;100338.78;;;15.61;100.00
61318;BME280;47201;40.428;-8.436;2023-05-27T04:37:12;100346.81;;;15.57;100.00
61318;BME280;47201;40.428;-8.436;2023-05-27T04:39:13;100347.88;;;15.49;100.00
61318;BME280;47201;40.428;-8.436;2023-05-27T04:41:17;100351.34;;;15.51;100.00
61318;BME280;47201;40.428;-8.436;2023-05-27T04:43:35;100357.53;;;15.49;100.00
61318;BME280;47201;40.428;-8.436;2023-05-27T04:45:36;100360.28;;;15.46;100.00
61318;BME280;47201;40.428;-8.436;2023-05-27T04:47:37;100370.88;;;15.43;100.00
61318;BME280;47201;40.428;-8.436;2023-05-27T04:49:41;100365.91;;;15.33;100.00
61318;BME280;47201;40.428;-8.436;2023-05-27T04:51:42;100367.88;;;15.25;100.00
61318;BME280;47201;40.428;-8.436;2023-05-27T04:53:43;100377.69;;;15.18;100.00
61318;BME280;47201;40.428;-8.436;2023-05-27T04:55:45;100362.16;;;15.07;100.00
61318;BME280;47201;40.428;-8.436;2023-05-27T04:57:46;100367.75;;;14.95;100.00
61318;BME280;47201;40.428;-8.436;2023-05-27T04:59:48;100366.34;;;14.82;100.00
61318;BME280;47201;40.428;-8.436;2023-05-27T05:01:59;100375.13;;;14.79;100.00
61318;BME280;47201;40.428;-8.436;2023-05-27T05:04:34;100377.28;;;14.62;100.00
61318;BME280;47201;40.428;-8.436;2023-05-27T05:06:39;100367.78;;;14.56;100.00
61318;BME280;47201;40.428;-8.436;2023-05-27T05:08:40;100371.50;;;14.47;100.00
61318;BME280;47201;40.428;-8.436;2023-05-27T05:10:40;100376.78;;;14.46;100.00
61318;BME280;47201;40.428;-8.436;2023-05-27T05:12:41;100378.44;;;14.50;100.00
61318;BME280;47201;40.428;-8.436;2023-05-27T05:14:42;100381.22;;;14.43;100.00
61318;BME280;47201;40.428;-8.436;2023-05-27T05:16:43;100393.31;;;14.51;100.00
61318;BME280;47201;40.428;-8.436;2023-05-27T05:18:44;100392.66;;;14.41;100.00
61318;BME280;47201;40.428;-8.436;2023-05-27T05:20:45;100395.41;;;14.36;100.00
61318;BME280;47201;40.428;-8.436;2023-05-27T05:22:48;100397.28;;;14.30;100.00
61318;BME280;47201;40.428;-8.436;2023-05-27T05:24:49;100394.56;;;14.34;100.00
61318;BME280;47201;40.428;-8.436;2023-05-27T05:26:51;100392.88;;;14.30;100.00
61318;BME280;47201;40.428;-8.436;2023-05-27T05:28:52;100399.06;;;14.29;100.00
61318;BME280;47201;40.428;-8.436;2023-05-27T05:30:53;100395.50;;;14.30;100.00
61318;BME280;47201;40.428;-8.436;2023-05-27T05:32:55;100410.34;;;14.34;100.00
61318;BME280;47201;40.428;-8.436;2023-05-27T05:34:57;100405.09;;;14.34;100.00
61318;BME280;47201;40.428;-8.436;2023-05-27T05:36:58;100418.22;;;14.34;100.00
61318;BME280;47201;40.428;-8.436;2023-05-27T05:38:59;100415.50;;;14.37;100.00
61318;BME280;47201;40.428;-8.436;2023-05-27T05:41:00;100428.56;;;14.43;100.00
61318;BME280;47201;40.428;-8.436;2023-05-27T05:43:01;100429.38;;;14.46;100.00
61318;BME280;47201;40.428;-8.436;2023-05-27T05:45:01;100425.84;;;14.47;100.00
61318;BME280;47201;40.428;-8.436;2023-05-27T05:47:05;100430.94;;;14.54;100.00
61318;BME280;47201;40.428;-8.436;2023-05-27T05:49:07;100428.97;;;14.64;100.00
61318;BME280;47201;40.428;-8.436;2023-05-27T05:51:12;100434.06;;;14.73;100.00
61318;BME280;47201;40.428;-8.436;2023-05-27T05:53:16;100436.44;;;14.83;100.00
61318;BME280;47201;40.428;-8.436;2023-05-27T05:55:18;100435.41;;;14.90;100.00
61318;BME280;47201;40.428;-8.436;2023-05-27T05:57:18;100440.41;;;15.02;100.00
61318;BME280;47201;40.428;-8.436;2023-05-27T05:59:19;100440.22;;;15.09;100.00
61318;BME280;47201;40.428;-8.436;2023-05-27T06:01:20;100437.38;;;15.18;100.00
61318;BME280;47201;40.428;-8.436;2023-05-27T06:03:21;100437.19;;;15.26;100.00
61318;BME280;47201;40.428;-8.436;2023-05-27T06:05:28;100444.69;;;15.41;100.00
61318;BME280;47201;40.428;-8.436;2023-05-27T06:07:29;100449.63;;;15.53;100.00
61318;BME280;47201;40.428;-8.436;2023-05-27T06:09:41;100441.31;;;15.69;100.00
61318;BME280;47201;40.428;-8.436;2023-05-27T06:11:50;100448.75;;;15.88;100.00
61318;BME280;47201;40.428;-8.436;2023-05-27T06:13:52;100450.06;;;16.04;100.00
61318;BME280;47201;40.428;-8.436;2023-05-27T06:15:54;100453.25;;;16.15;100.00
61318;BME280;47201;40.428;-8.436;2023-05-27T06:17:58;100444.03;;;16.30;100.00
61318;BME280;47201;40.428;-8.436;2023-05-27T06:19:59;100447.91;;;16.48;100.00
61318;BME280;47201;40.428;-8.436;2023-05-27T06:22:00;100454.47;;;16.63;100.00
61318;BME280;47201;40.428;-8.436;2023-05-27T06:24:19;100450.53;;;16.77;100.00
61318;BME280;47201;40.428;-8.436;2023-05-27T06:26:25;100453.03;;;16.81;100.00
61318;BME280;47201;40.428;-8.436;2023-05-27T06:28:30;100458.00;;;16.92;100.00
61318;BME280;47201;40.428;-8.436;2023-05-27T06:30:32;100449.59;;;17.08;100.00
61318;BME280;47201;40.428;-8.436;2023-05-27T06:32:34;100445.69;;;17.20;100.00
61318;BME280;47201;40.428;-8.436;2023-05-27T06:34:35;100460.16;;;17.35;100.00
61318;BME280;47201;40.428;-8.436;2023-05-27T06:36:36;100455.16;;;17.52;100.00
61318;BME280;47201;40.428;-8.436;2023-05-27T06:38:36;100459.09;;;17.66;100.00
61318;BME280;47201;40.428;-8.436;2023-05-27T06:40:37;100461.78;;;17.89;100.00
61318;BME280;47201;40.428;-8.436;2023-05-27T06:42:42;100464.81;;;18.04;100.00
61318;BME280;47201;40.428;-8.436;2023-05-27T06:45:22;100451.84;;;18.21;99.95
61318;BME280;47201;40.428;-8.436;2023-05-27T06:47:29;100452.28;;;18.33;99.26
61318;BME280;47201;40.428;-8.436;2023-05-27T06:49:30;100452.41;;;18.53;98.67
61318;BME280;47201;40.428;-8.436;2023-05-27T06:51:33;100451.03;;;18.65;98.18
61318;BME280;47201;40.428;-8.436;2023-05-27T06:53:34;100459.53;;;18.74;97.98
61318;BME280;47201;40.428;-8.436;2023-05-27T06:55:40;100460.72;;;18.89;97.11
61318;BME280;47201;40.428;-8.436;2023-05-27T06:58:01;100459.63;;;19.16;95.51
61318;BME280;47201;40.428;-8.436;2023-05-27T07:00:13;100469.41;;;19.37;94.74
61318;BME280;47201;40.428;-8.436;2023-05-27T07:02:24;100477.16;;;19.62;93.15
61318;BME280;47201;40.428;-8.436;2023-05-27T07:04:24;100468.75;;;19.93;91.89
61318;BME280;47201;40.428;-8.436;2023-05-27T07:06:34;100473.97;;;20.16;89.87
61318;BME280;47201;40.428;-8.436;2023-05-27T07:08:37;100478.53;;;20.52;88.36
61318;BME280;47201;40.428;-8.436;2023-05-27T07:10:47;100480.78;;;20.80;84.96
61318;BME280;47201;40.428;-8.436;2023-05-27T07:12:48;100480.38;;;21.24;83.79
61318;BME280;47201;40.428;-8.436;2023-05-27T07:14:59;100481.09;;;21.46;81.65
61318;BME280;47201;40.428;-8.436;2023-05-27T07:17:01;100479.69;;;21.91;80.80
61318;BME280;47201;40.428;-8.436;2023-05-27T07:19:02;100483.16;;;22.09;79.61
61318;BME280;47201;40.428;-8.436;2023-05-27T07:21:07;100484.75;;;22.13;78.71
61318;BME280;47201;40.428;-8.436;2023-05-27T07:23:07;100474.66;;;22.02;77.95
61318;BME280;47201;40.428;-8.436;2023-05-27T07:25:13;100477.56;;;21.98;79.18
61318;BME280;47201;40.428;-8.436;2023-05-27T07:27:13;100477.13;;;22.06;78.66
61318;BME280;47201;40.428;-8.436;2023-05-27T07:29:19;100475.41;;;22.05;78.79
61318;BME280;47201;40.428;-8.436;2023-05-27T07:31:27;100465.97;;;22.32;77.99
61318;BME280;47201;40.428;-8.436;2023-05-27T07:33:33;100467.28;;;22.08;77.19
61318;BME280;47201;40.428;-8.436;2023-05-27T07:35:34;100468.75;;;22.13;77.48
61318;BME280;47201;40.428;-8.436;2023-05-27T07:37:34;100471.34;;;22.15;77.41
61318;BME280;47201;40.428;-8.436;2023-05-27T07:39:35;100467.31;;;22.73;76.06
61318;BME280;47201;40.428;-8.436;2023-05-27T07:41:36;100463.22;;;23.44;71.92
61318;BME280;47201;40.428;-8.436;2023-05-27T07:43:41;100460.75;;;24.01;67.77
61318;BME280;47201;40.428;-8.436;2023-05-27T07:45:41;100462.56;;;24.44;66.91
61318;BME280;47201;40.428;-8.436;2023-05-27T07:47:42;100462.19;;;24.21;67.03
61318;BME280;47201;40.428;-8.436;2023-05-27T07:49:43;100470.91;;;25.21;63.75
61318;BME280;47201;40.428;-8.436;2023-05-27T07:52:09;100473.28;;;26.43;58.66
61318;BME280;47201;40.428;-8.436;2023-05-27T07:54:10;100487.91;;;27.01;58.11
61318;BME280;47201;40.428;-8.436;2023-05-27T07:56:11;100491.78;;;27.21;58.52
61318;BME280;47201;40.428;-8.436;2023-05-27T07:58:12;100490.44;;;25.89;63.71
61318;BME280;47201;40.428;-8.436;2023-05-27T08:00:41;100495.56;;;25.54;66.31
61318;BME280;47201;40.428;-8.436;2023-05-27T08:02:41;100492.72;;;25.15;69.18
61318;BME280;47201;40.428;-8.436;2023-05-27T08:04:43;100486.75;;;24.69;71.67
61318;BME280;47201;40.428;-8.436;2023-05-27T08:06:58;100494.34;;;24.34;73.51
61318;BME280;47201;40.428;-8.436;2023-05-27T08:09:06;100490.34;;;24.12;74.92
61318;BME280;47201;40.428;-8.436;2023-05-27T08:11:26;100488.56;;;23.82;76.08
61318;BME280;47201;40.428;-8.436;2023-05-27T08:13:38;100490.56;;;23.79;76.38
61318;BME280;47201;40.428;-8.436;2023-05-27T08:16:08;100487.84;;;23.95;75.39
61318;BME280;47201;40.428;-8.436;2023-05-27T08:18:19;100484.16;;;24.82;72.61
61318;BME280;47201;40.428;-8.436;2023-05-27T08:20:40;100479.94;;;26.25;67.56
61318;BME280;47201;40.428;-8.436;2023-05-27T08:22:56;100490.69;;;26.99;64.10
61318;BME280;47201;40.428;-8.436;2023-05-27T08:25:35;100491.41;;;28.42;61.00
61318;BME280;47201;40.428;-8.436;2023-05-27T08:27:43;100499.16;;;29.35;59.13
61318;BME280;47201;40.428;-8.436;2023-05-27T08:29:49;100498.75;;;30.55;58.29
61318;BME280;47201;40.428;-8.436;2023-05-27T08:31:58;100497.41;;;31.69;56.36
61318;BME280;47201;40.428;-8.436;2023-05-27T08:34:01;100507.56;;;32.70;55.22
61318;BME280;47201;40.428;-8.436;2023-05-27T08:36:02;100498.03;;;33.12;55.33
61318;BME280;47201;40.428;-8.436;2023-05-27T08:38:02;100493.16;;;31.66;60.91
61318;BME280;47201;40.428;-8.436;2023-05-27T08:40:12;100507.09;;;33.02;58.51
61318;BME280;47201;40.428;-8.436;2023-05-27T08:42:16;100505.09;;;33.41;59.81
61318;BME280;47201;40.428;-8.436;2023-05-27T08:44:17;100505.44;;;33.64;60.68
61318;BME280;47201;40.428;-8.436;2023-05-27T08:46:20;100502.41;;;34.54;60.22
61318;BME280;47201;40.428;-8.436;2023-05-27T08:48:21;100500.41;;;34.64;62.33
61318;BME280;47201;40.428;-8.436;2023-05-27T08:50:22;100500.53;;;34.20;65.08
61318;BME280;47201;40.428;-8.436;2023-05-27T08:52:24;100514.63;;;33.71;67.51
61318;BME280;47201;40.428;-8.436;2023-05-27T08:54:26;100512.69;;;34.08;68.15
61318;BME280;47201;40.428;-8.436;2023-05-27T08:56:30;100515.53;;;34.75;68.25
61318;BME280;47201;40.428;-8.436;2023-05-27T08:58:32;100512.72;;;34.93;68.96
61318;BME280;47201;40.428;-8.436;2023-05-27T09:00:33;100523.09;;;34.47;70.36
61318;BME280;47201;40.428;-8.436;2023-05-27T09:02:44;100514.34;;;34.86;70.74
61318;BME280;47201;40.428;-8.436;2023-05-27T09:04:45;100518.63;;;34.89;71.39
61318;BME280;47201;40.428;-8.436;2023-05-27T09:06:46;100523.25;;;34.97;71.14
61318;BME280;47201;40.428;-8.436;2023-05-27T09:08:46;100522.75;;;34.50;73.22
61318;BME280;47201;40.428;-8.436;2023-05-27T09:10:47;100522.44;;;33.92;74.60
61318;BME280;47201;40.428;-8.436;2023-05-27T09:12:50;100530.00;;;33.44;75.90
61318;BME280;47201;40.428;-8.436;2023-05-27T09:14:51;100528.13;;;32.90;76.72
61318;BME280;47201;40.428;-8.436;2023-05-27T09:16:52;100525.56;;;32.61;77.71
61318;BME280;47201;40.428;-8.436;2023-05-27T09:18:52;100517.06;;;32.18;78.90
61318;BME280;47201;40.428;-8.436;2023-05-27T09:20:55;100515.00;;;32.40;78.73
61318;BME280;47201;40.428;-8.436;2023-05-27T09:23:00;100520.34;;;32.78;78.04
61318;BME280;47201;40.428;-8.436;2023-05-27T09:25:01;100518.13;;;32.63;78.46
61318;BME280;47201;40.428;-8.436;2023-05-27T09:27:01;100517.69;;;32.40;78.64
61318;BME280;47201;40.428;-8.436;2023-05-27T09:29:08;100513.34;;;32.57;79.01
61318;BME280;47201;40.428;-8.436;2023-05-27T09:31:09;100520.44;;;32.58;79.01
61318;BME280;47201;40.428;-8.436;2023-05-27T09:33:10;100517.13;;;32.92;78.42
61318;BME280;47201;40.428;-8.436;2023-05-27T09:35:11;100515.13;;;32.94;78.11
61318;BME280;47201;40.428;-8.436;2023-05-27T09:37:12;100515.56;;;33.35;77.76
61318;BME280;47201;40.428;-8.436;2023-05-27T09:39:19;100514.22;;;33.40;77.94
61318;BME280;47201;40.428;-8.436;2023-05-27T09:41:23;100525.53;;;33.35;78.24
61318;BME280;47201;40.428;-8.436;2023-05-27T09:43:26;100522.34;;;33.21;78.73
61318;BME280;47201;40.428;-8.436;2023-05-27T09:45:28;100526.09;;;33.65;77.89
61318;BME280;47201;40.428;-8.436;2023-05-27T09:47:28;100531.47;;;33.83;77.66
61318;BME280;47201;40.428;-8.436;2023-05-27T09:49:30;100522.66;;;33.55;77.96
61318;BME280;47201;40.428;-8.436;2023-05-27T09:51:33;100523.69;;;33.80;77.97
61318;BME280;47201;40.428;-8.436;2023-05-27T09:53:37;100520.09;;;33.79;77.76
61318;BME280;47201;40.428;-8.436;2023-05-27T09:55:41;100511.34;;;33.23;79.50
61318;BME280;47201;40.428;-8.436;2023-05-27T09:57:42;100519.22;;;32.70;80.68
61318;BME280;47201;40.428;-8.436;2023-05-27T09:59:45;100510.03;;;32.35;81.33
61318;BME280;47201;40.428;-8.436;2023-05-27T10:01:46;100507.63;;;31.85;82.52
61318;BME280;47201;40.428;-8.436;2023-05-27T10:03:49;100512.06;;;31.76;82.53
61318;BME280;47201;40.428;-8.436;2023-05-27T10:05:51;100504.59;;;30.70;84.57
61318;BME280;47201;40.428;-8.436;2023-05-27T10:07:51;100499.06;;;30.72;85.04
61318;BME280;47201;40.428;-8.436;2023-05-27T10:09:52;100499.31;;;30.59;85.19
61318;BME280;47201;40.428;-8.436;2023-05-27T10:11:55;100497.63;;;29.53;87.76
61318;BME280;47201;40.428;-8.436;2023-05-27T10:13:56;100501.88;;;29.23;88.80
61318;BME280;47201;40.428;-8.436;2023-05-27T10:15:56;100504.22;;;28.84;89.32
61318;BME280;47201;40.428;-8.436;2023-05-27T10:17:59;100493.59;;;28.48;90.01
61318;BME280;47201;40.428;-8.436;2023-05-27T10:20:00;100498.38;;;27.99;91.81
61318;BME280;47201;40.428;-8.436;2023-05-27T10:22:10;100488.56;;;27.76;91.71
61318;BME280;47201;40.428;-8.436;2023-05-27T10:24:11;100491.69;;;27.58;92.81
61318;BME280;47201;40.428;-8.436;2023-05-27T10:26:12;100497.19;;;27.32;93.21
61318;BME280;47201;40.428;-8.436;2023-05-27T10:28:30;100498.50;;;27.27;93.93
61318;BME280;47201;40.428;-8.436;2023-05-27T10:30:45;100505.94;;;27.47;93.06
61318;BME280;47201;40.428;-8.436;2023-05-27T10:32:49;100499.06;;;28.92;89.69
61318;BME280;47201;40.428;-8.436;2023-05-27T10:34:50;100506.00;;;29.27;87.83
61318;BME280;47201;40.428;-8.436;2023-05-27T10:36:59;100500.91;;;30.71;84.60
61318;BME280;47201;40.428;-8.436;2023-05-27T10:39:04;100503.75;;;31.97;81.89
61318;BME280;47201;40.428;-8.436;2023-05-27T10:41:06;100506.06;;;32.85;79.86